createdAt,value
2023-02-27T00:00:53.545Z,938.73
2023-02-27T00:01:53.548Z,938.79
2023-02-27T00:02:53.717Z,938.76
2023-02-27T00:03:53.592Z,938.74
2023-02-27T00:04:53.516Z,938.77
2023-02-27T00:05:53.528Z,938.74
2023-02-27T00:06:53.532Z,938.72
2023-02-27T00:07:53.500Z,938.68
2023-02-27T00:08:53.583Z,938.76
2023-02-27T00:09:53.494Z,938.73
2023-02-27T00:10:53.514Z,938.72
2023-02-27T00:11:53.443Z,938.69
2023-02-27T00:12:53.434Z,938.67
2023-02-27T00:13:53.428Z,938.70
2023-02-27T00:14:53.459Z,938.70
2023-02-27T00:15:53.510Z,938.65
2023-02-27T00:16:53.393Z,938.66
2023-02-27T00:17:53.397Z,938.76
2023-02-27T00:18:53.369Z,938.56
2023-02-27T00:19:53.357Z,938.63
2023-02-27T00:20:53.381Z,938.58
2023-02-27T00:21:53.403Z,938.64
2023-02-27T00:22:53.391Z,938.72
2023-02-27T00:23:53.355Z,938.65
2023-02-27T00:24:53.312Z,938.70
2023-02-27T00:25:53.301Z,938.79
2023-02-27T00:26:53.310Z,938.70
2023-02-27T00:27:53.308Z,938.76
2023-02-27T00:28:53.300Z,938.75
2023-02-27T00:29:53.261Z,938.75
2023-02-27T00:30:53.324Z,938.79
2023-02-27T00:31:53.444Z,938.77
2023-02-27T00:32:53.236Z,938.82
2023-02-27T00:33:53.255Z,938.81
2023-02-27T00:34:53.226Z,938.79
2023-02-27T00:35:53.197Z,938.75
2023-02-27T00:36:53.225Z,938.87
2023-02-27T00:37:53.195Z,938.76
2023-02-27T00:38:53.172Z,938.79
2023-02-27T00:39:53.187Z,938.73
2023-02-27T00:40:53.190Z,938.72
2023-02-27T00:41:53.142Z,938.81
2023-02-27T00:42:53.193Z,938.81
2023-02-27T00:43:53.120Z,938.82
2023-02-27T00:44:53.114Z,938.81
2023-02-27T00:45:53.147Z,938.85
2023-02-27T00:46:53.188Z,938.79
2023-02-27T00:47:53.127Z,938.81
2023-02-27T00:48:53.076Z,938.86
2023-02-27T00:49:53.094Z,938.87
2023-02-27T00:50:53.046Z,938.81
2023-02-27T00:51:53.045Z,938.83
2023-02-27T00:52:53.062Z,938.82
2023-02-27T00:53:53.069Z,938.83
2023-02-27T00:54:53.024Z,938.84
2023-02-27T00:55:53.019Z,938.84
2023-02-27T00:56:52.999Z,938.88
2023-02-27T00:57:53.041Z,938.90
2023-02-27T00:58:52.983Z,938.86
2023-02-27T00:59:52.981Z,938.92
2023-02-27T01:00:52.984Z,938.96
2023-02-27T01:01:52.980Z,938.87
2023-02-27T01:02:53.105Z,938.90
2023-02-27T01:03:52.976Z,938.92
2023-02-27T01:04:52.912Z,938.93
2023-02-27T01:05:52.918Z,938.98
2023-02-27T01:06:52.903Z,938.96
2023-02-27T01:07:52.884Z,938.93
2023-02-27T01:08:52.870Z,938.97
2023-02-27T01:09:52.891Z,938.97
2023-02-27T01:10:52.854Z,938.87
2023-02-27T01:11:52.877Z,938.92
2023-02-27T01:12:52.841Z,938.92
2023-02-27T01:13:52.891Z,938.86
2023-02-27T01:14:52.867Z,938.86
2023-02-27T01:15:52.835Z,938.93
2023-02-27T01:16:52.811Z,938.87
2023-02-27T01:17:52.813Z,938.90
2023-02-27T01:18:52.788Z,938.85
2023-02-27T01:19:52.772Z,938.92
2023-02-27T01:20:52.794Z,938.82
2023-02-27T01:21:52.798Z,938.81
2023-02-27T01:22:52.740Z,938.84
2023-02-27T01:23:52.738Z,938.96
2023-02-27T01:24:52.723Z,938.88
2023-02-27T01:25:52.754Z,938.84
2023-02-27T01:26:52.713Z,938.82
2023-02-27T01:27:52.726Z,938.83
2023-02-27T01:28:52.682Z,938.87
2023-02-27T01:29:52.683Z,938.84
2023-02-27T01:30:52.672Z,938.87
2023-02-27T01:31:52.888Z,938.89
2023-02-27T01:32:52.644Z,938.91
2023-02-27T01:33:52.628Z,938.82
2023-02-27T01:34:52.657Z,938.96
2023-02-27T01:35:52.623Z,938.89
2023-02-27T01:36:52.603Z,938.96
2023-02-27T01:37:52.629Z,938.99
2023-02-27T01:38:52.590Z,938.90
2023-02-27T01:39:52.626Z,938.98
2023-02-27T01:40:52.572Z,938.88
2023-02-27T01:41:52.560Z,938.92
2023-02-27T01:42:52.560Z,938.94
2023-02-27T01:43:52.577Z,938.90
2023-02-27T01:44:52.574Z,938.89
2023-02-27T01:45:52.560Z,938.87
2023-02-27T01:46:52.524Z,938.88
2023-02-27T01:47:52.486Z,938.89
2023-02-27T01:48:52.537Z,938.94
2023-02-27T01:49:52.486Z,938.85
2023-02-27T01:50:52.488Z,938.86
2023-02-27T01:52:00.017Z,938.94
2023-02-27T01:52:52.443Z,938.91
2023-02-27T01:53:52.433Z,938.87
2023-02-27T01:54:52.441Z,938.84
2023-02-27T01:55:52.410Z,938.83
2023-02-27T01:56:52.435Z,938.80
2023-02-27T01:57:52.390Z,938.84
2023-02-27T01:58:52.435Z,938.81
2023-02-27T01:59:52.447Z,938.82
2023-02-27T02:00:52.435Z,938.81
2023-02-27T02:01:52.351Z,938.85
2023-02-27T02:02:52.350Z,938.78
2023-02-27T02:03:52.333Z,938.91
2023-02-27T02:04:52.337Z,938.79
2023-02-27T02:05:52.348Z,938.83
2023-02-27T02:06:52.332Z,938.86
2023-02-27T02:07:52.329Z,938.94
2023-02-27T02:08:52.289Z,938.93
2023-02-27T02:09:52.299Z,938.92
2023-02-27T02:10:52.262Z,938.92
2023-02-27T02:11:52.251Z,938.93
2023-02-27T02:12:52.252Z,938.90
2023-02-27T02:13:52.262Z,938.85
2023-02-27T02:14:52.232Z,938.89
2023-02-27T02:15:52.236Z,938.90
2023-02-27T02:16:52.277Z,938.89
2023-02-27T02:17:52.225Z,938.86
2023-02-27T02:18:52.237Z,938.94
2023-02-27T02:19:52.237Z,938.91
2023-02-27T02:20:52.191Z,938.85
2023-02-27T02:21:52.146Z,938.81
2023-02-27T02:22:52.165Z,938.85
2023-02-27T02:23:52.136Z,938.88
2023-02-27T02:24:52.126Z,938.91
2023-02-27T02:25:52.181Z,938.94
2023-02-27T02:26:52.103Z,938.90
2023-02-27T02:27:52.626Z,939.04
2023-02-27T02:28:52.089Z,939.02
2023-02-27T02:29:52.090Z,938.95
2023-02-27T02:30:52.135Z,939.00
2023-02-27T02:31:52.284Z,939.00
2023-02-27T02:32:52.076Z,938.92
2023-02-27T02:33:52.051Z,939.06
2023-02-27T02:34:52.058Z,938.98
2023-02-27T02:35:52.022Z,938.97
2023-02-27T02:36:52.003Z,938.98
2023-02-27T02:37:52.013Z,938.96
2023-02-27T02:38:51.984Z,939.08
2023-02-27T02:39:52.021Z,939.05
2023-02-27T02:40:51.972Z,938.97
2023-02-27T02:41:51.956Z,938.93
2023-02-27T02:42:53.342Z,939.00
2023-02-27T02:43:51.980Z,939.04
2023-02-27T02:44:51.979Z,938.97
2023-02-27T02:45:51.960Z,938.96
2023-02-27T02:46:51.915Z,939.03
2023-02-27T02:47:51.919Z,939.00
2023-02-27T02:48:51.888Z,939.03
2023-02-27T02:49:51.881Z,939.01
2023-02-27T02:50:51.898Z,938.96
2023-02-27T02:51:51.889Z,938.95
2023-02-27T02:52:51.884Z,938.98
2023-02-27T02:53:51.834Z,939.02
2023-02-27T02:54:51.837Z,938.92
2023-02-27T02:55:51.813Z,938.95
2023-02-27T02:56:51.851Z,938.91
2023-02-27T02:57:51.857Z,938.94
2023-02-27T02:58:51.793Z,938.96
2023-02-27T02:59:52.610Z,938.87
2023-02-27T03:00:51.777Z,938.91
2023-02-27T03:01:51.807Z,938.96
2023-02-27T03:02:51.758Z,938.93
2023-02-27T03:03:51.795Z,938.90
2023-02-27T03:04:51.730Z,938.89
2023-02-27T03:05:51.771Z,938.92
2023-02-27T03:06:51.714Z,938.87
2023-02-27T03:07:51.781Z,938.85
2023-02-27T03:08:51.718Z,938.89
2023-02-27T03:09:51.739Z,938.87
2023-02-27T03:10:51.675Z,938.82
2023-02-27T03:11:51.660Z,938.82
2023-02-27T03:12:51.667Z,938.91
2023-02-27T03:13:51.671Z,938.85
2023-02-27T03:14:51.654Z,938.86
2023-02-27T03:15:51.696Z,938.78
2023-02-27T03:16:51.643Z,938.83
2023-02-27T03:17:51.606Z,938.90
2023-02-27T03:18:51.594Z,939.02
2023-02-27T03:19:52.132Z,938.97
2023-02-27T03:20:51.610Z,938.83
2023-02-27T03:21:51.556Z,938.88
2023-02-27T03:22:51.573Z,938.87
2023-02-27T03:23:51.531Z,939.02
2023-02-27T03:24:51.537Z,938.90
2023-02-27T03:25:51.566Z,939.01
2023-02-27T03:26:51.512Z,938.85
2023-02-27T03:27:51.499Z,938.92
2023-02-27T03:28:51.518Z,938.94
2023-02-27T03:29:51.497Z,938.89
2023-02-27T03:30:51.664Z,938.91
2023-02-27T03:31:51.616Z,938.93
2023-02-27T03:32:51.487Z,938.95
2023-02-27T03:33:51.448Z,938.92
2023-02-27T03:34:51.431Z,938.92
2023-02-27T03:35:51.459Z,938.95
2023-02-27T03:36:51.401Z,939.04
2023-02-27T03:37:51.419Z,938.90
2023-02-27T03:38:51.446Z,938.96
2023-02-27T03:39:51.396Z,939.01
2023-02-27T03:40:51.393Z,939.01
2023-02-27T03:41:51.358Z,938.96
2023-02-27T03:42:51.375Z,938.95
2023-02-27T03:43:51.343Z,938.96
2023-02-27T03:44:52.463Z,939.07
2023-02-27T03:45:51.326Z,938.97
2023-02-27T03:46:51.311Z,938.97
2023-02-27T03:47:51.310Z,938.96
2023-02-27T03:48:51.298Z,939.02
2023-02-27T03:49:51.289Z,938.98
2023-02-27T03:50:51.313Z,939.10
2023-02-27T03:51:51.348Z,939.02
2023-02-27T03:52:51.252Z,939.09
2023-02-27T03:53:51.240Z,939.07
2023-02-27T03:54:51.231Z,939.12
2023-02-27T03:55:51.314Z,939.11
2023-02-27T03:56:51.242Z,939.06
2023-02-27T03:57:51.214Z,939.25
2023-02-27T03:58:51.192Z,939.12
2023-02-27T03:59:51.184Z,939.14
2023-02-27T04:00:51.199Z,939.16
2023-02-27T04:01:56.147Z,939.21
2023-02-27T04:02:51.202Z,939.16
2023-02-27T04:03:51.142Z,939.16
2023-02-27T04:04:51.161Z,939.11
2023-02-27T04:05:51.133Z,939.12
2023-02-27T04:06:51.255Z,939.14
2023-02-27T04:07:51.159Z,939.11
2023-02-27T04:08:51.100Z,939.18
2023-02-27T04:09:51.089Z,939.10
2023-02-27T04:10:51.073Z,939.08
2023-02-27T04:11:51.080Z,939.14
2023-02-27T04:12:51.057Z,939.04
2023-02-27T04:13:51.070Z,939.11
2023-02-27T04:14:51.041Z,939.08
2023-02-27T04:15:51.088Z,939.12
2023-02-27T04:16:51.048Z,939.10
2023-02-27T04:17:51.028Z,939.16
2023-02-27T04:18:51.023Z,939.16
2023-02-27T04:19:50.978Z,939.12
2023-02-27T04:20:50.983Z,939.14
2023-02-27T04:21:50.966Z,939.19
2023-02-27T04:22:50.977Z,939.07
2023-02-27T04:23:50.968Z,939.11
2023-02-27T04:24:50.970Z,939.17
2023-02-27T04:25:50.965Z,939.14
2023-02-27T04:26:50.914Z,939.10
2023-02-27T04:27:50.913Z,939.22
2023-02-27T04:28:50.897Z,939.20
2023-02-27T04:29:50.881Z,939.16
2023-02-27T04:30:50.904Z,939.14
2023-02-27T04:31:51.096Z,939.08
2023-02-27T04:32:50.907Z,939.12
2023-02-27T04:33:50.855Z,939.18
2023-02-27T04:34:50.868Z,939.16
2023-02-27T04:35:50.849Z,939.17
2023-02-27T04:36:50.859Z,939.11
2023-02-27T04:37:50.830Z,939.14
2023-02-27T04:38:50.807Z,939.10
2023-02-27T04:39:50.825Z,939.12
2023-02-27T04:40:50.796Z,939.05
2023-02-27T04:41:50.802Z,939.11
2023-02-27T04:42:50.769Z,939.14
2023-02-27T04:43:50.821Z,939.11
2023-02-27T04:44:50.738Z,939.21
2023-02-27T04:45:50.797Z,939.13
2023-02-27T04:46:50.717Z,939.11
2023-02-27T04:47:50.719Z,939.04
2023-02-27T04:48:50.712Z,939.12
2023-02-27T04:49:50.728Z,939.19
2023-02-27T04:50:50.673Z,939.09
2023-02-27T04:51:50.741Z,939.12
2023-02-27T04:52:50.689Z,939.15
2023-02-27T04:53:50.658Z,939.15
2023-02-27T04:54:50.652Z,939.09
2023-02-27T04:55:50.692Z,939.07
2023-02-27T04:56:50.625Z,939.11
2023-02-27T04:57:50.624Z,939.13
2023-02-27T04:58:50.627Z,939.14
2023-02-27T04:59:50.629Z,939.09
2023-02-27T05:00:50.648Z,939.07
2023-02-27T05:01:50.694Z,939.10
2023-02-27T05:02:50.647Z,939.14
2023-02-27T05:03:50.561Z,939.11
2023-02-27T05:04:50.542Z,939.09
2023-02-27T05:05:50.584Z,939.16
2023-02-27T05:06:50.542Z,939.09
2023-02-27T05:07:50.527Z,939.19
2023-02-27T05:08:50.505Z,939.07
2023-02-27T05:09:50.519Z,939.13
2023-02-27T05:10:50.507Z,939.13
2023-02-27T05:11:50.497Z,939.16
2023-02-27T05:12:50.473Z,939.13
2023-02-27T05:13:50.496Z,939.17
2023-02-27T05:14:50.448Z,939.21
2023-02-27T05:15:50.519Z,939.08
2023-02-27T05:16:50.478Z,939.08
2023-02-27T05:17:50.454Z,939.12
2023-02-27T05:18:50.412Z,939.10
2023-02-27T05:19:50.406Z,939.08
2023-02-27T05:20:50.419Z,939.09
2023-02-27T05:21:50.409Z,939.08
2023-02-27T05:22:50.363Z,939.09
2023-02-27T05:23:50.415Z,939.08
2023-02-27T05:24:50.414Z,939.05
2023-02-27T05:25:50.347Z,939.13
2023-02-27T05:26:50.392Z,939.08
2023-02-27T05:27:50.391Z,939.08
2023-02-27T05:28:50.309Z,939.09
2023-02-27T05:29:50.306Z,939.13
2023-02-27T05:30:50.291Z,939.09
2023-02-27T05:31:50.530Z,939.14
2023-02-27T05:32:50.316Z,939.13
2023-02-27T05:33:50.286Z,939.11
2023-02-27T05:34:50.257Z,939.16
2023-02-27T05:35:50.325Z,939.10
2023-02-27T05:36:50.257Z,939.17
2023-02-27T05:37:50.270Z,939.23
2023-02-27T05:38:50.219Z,939.14
2023-02-27T05:39:50.243Z,939.12
2023-02-27T05:40:50.247Z,939.19
2023-02-27T05:41:50.173Z,939.18
2023-02-27T05:42:50.171Z,939.14
2023-02-27T05:43:50.179Z,939.16
2023-02-27T05:44:50.144Z,939.12
2023-02-27T05:45:50.222Z,939.18
2023-02-27T05:46:50.155Z,939.21
2023-02-27T05:47:50.113Z,939.11
2023-02-27T05:48:50.108Z,939.13
2023-02-27T05:49:50.103Z,939.14
2023-02-27T05:50:50.088Z,939.18
2023-02-27T05:51:50.130Z,939.17
2023-02-27T05:52:50.082Z,939.19
2023-02-27T05:53:50.067Z,939.13
2023-02-27T05:54:50.111Z,939.07
2023-02-27T05:55:50.042Z,939.08
2023-02-27T05:56:50.053Z,939.12
2023-02-27T05:57:50.019Z,939.13
2023-02-27T05:58:50.035Z,939.24
2023-02-27T05:59:50.022Z,939.16
2023-02-27T06:00:50.001Z,939.13
2023-02-27T06:01:49.995Z,939.23
2023-02-27T06:02:50.009Z,939.17
2023-02-27T06:03:49.960Z,939.24
2023-02-27T06:04:49.999Z,939.24
2023-02-27T06:05:49.989Z,939.22
2023-02-27T06:06:49.927Z,939.20
2023-02-27T06:07:49.929Z,939.13
2023-02-27T06:08:49.968Z,939.14
2023-02-27T06:09:49.912Z,939.12
2023-02-27T06:10:49.905Z,939.14
2023-02-27T06:11:49.882Z,939.14
2023-02-27T06:12:49.870Z,939.21
2023-02-27T06:13:49.875Z,939.26
2023-02-27T06:14:49.878Z,939.22
2023-02-27T06:15:49.860Z,939.20
2023-02-27T06:16:49.920Z,939.31
2023-02-27T06:17:49.832Z,939.21
2023-02-27T06:18:49.846Z,939.21
2023-02-27T06:19:49.845Z,939.20
2023-02-27T06:20:49.810Z,939.24
2023-02-27T06:21:49.794Z,939.21
2023-02-27T06:22:49.779Z,939.21
2023-02-27T06:23:49.796Z,939.30
2023-02-27T06:24:49.790Z,939.29
2023-02-27T06:25:49.750Z,939.24
2023-02-27T06:26:49.733Z,939.26
2023-02-27T06:27:49.722Z,939.20
2023-02-27T06:28:49.704Z,939.19
2023-02-27T06:29:49.701Z,939.26
2023-02-27T06:30:49.735Z,939.24
2023-02-27T06:31:49.733Z,939.27
2023-02-27T06:32:49.711Z,939.32
2023-02-27T06:33:49.674Z,939.31
2023-02-27T06:34:49.658Z,939.25
2023-02-27T06:35:49.696Z,939.30
2023-02-27T06:36:49.633Z,939.37
2023-02-27T06:37:49.629Z,939.30
2023-02-27T06:38:49.620Z,939.23
2023-02-27T06:39:49.632Z,939.35
2023-02-27T06:40:49.588Z,939.30
2023-02-27T06:41:49.648Z,939.28
2023-02-27T06:42:49.565Z,939.31
2023-02-27T06:43:49.575Z,939.29
2023-02-27T06:44:49.571Z,939.28
2023-02-27T06:45:49.597Z,939.31
2023-02-27T06:46:49.572Z,939.23
2023-02-27T06:47:49.557Z,939.25
2023-02-27T06:48:49.504Z,939.32
2023-02-27T06:49:49.504Z,939.37
2023-02-27T06:50:49.508Z,939.25
2023-02-27T06:51:49.606Z,939.40
2023-02-27T06:52:56.975Z,939.41
2023-02-27T06:53:49.464Z,939.30
2023-02-27T06:54:49.460Z,939.31
2023-02-27T06:55:49.446Z,939.32
2023-02-27T06:56:49.461Z,939.36
2023-02-27T06:57:49.491Z,939.29
2023-02-27T06:58:49.437Z,939.34
2023-02-27T06:59:49.440Z,939.29
2023-02-27T07:00:49.399Z,939.30
2023-02-27T07:01:49.421Z,939.32
2023-02-27T07:02:49.402Z,939.33
2023-02-27T07:03:49.384Z,939.40
2023-02-27T07:04:49.404Z,939.42
2023-02-27T07:05:49.338Z,939.46
2023-02-27T07:07:34.500Z,939.42
2023-02-27T07:07:50.357Z,939.37
2023-02-27T07:09:01.767Z,939.41
2023-02-27T07:09:50.304Z,939.39
2023-02-27T07:10:49.334Z,939.44
2023-02-27T07:11:49.337Z,939.42
2023-02-27T07:12:49.274Z,939.40
2023-02-27T07:13:49.267Z,939.66
2023-02-27T07:14:49.259Z,939.44
2023-02-27T07:15:49.324Z,939.42
2023-02-27T07:16:49.335Z,939.50
2023-02-27T07:17:49.266Z,939.43
2023-02-27T07:18:49.237Z,939.53
2023-02-27T07:19:49.280Z,939.48
2023-02-27T07:20:49.219Z,939.50
2023-02-27T07:21:49.250Z,939.55
2023-02-27T07:22:49.224Z,939.53
2023-02-27T07:23:49.161Z,939.42
2023-02-27T07:24:49.287Z,939.46
2023-02-27T07:25:49.194Z,939.53
2023-02-27T07:26:49.289Z,939.47
2023-02-27T07:27:49.178Z,939.57
2023-02-27T07:28:49.254Z,939.51
2023-02-27T07:29:49.143Z,939.50
2023-02-27T07:30:49.137Z,939.58
2023-02-27T07:31:49.281Z,939.56
2023-02-27T07:32:49.093Z,939.60
2023-02-27T07:33:49.070Z,939.54
2023-02-27T07:34:49.065Z,939.60
2023-02-27T07:35:49.144Z,939.54
2023-02-27T07:36:49.034Z,939.71
2023-02-27T07:37:49.088Z,939.68
2023-02-27T07:38:49.022Z,939.63
2023-02-27T07:39:49.135Z,939.70
2023-02-27T07:40:49.002Z,939.66
2023-02-27T07:41:49.032Z,939.69
2023-02-27T07:42:48.969Z,939.64
2023-02-27T07:43:49.003Z,939.67
2023-02-27T07:44:48.974Z,939.67
2023-02-27T07:45:48.973Z,939.63
2023-02-27T07:46:49.102Z,939.66
2023-02-27T07:47:48.962Z,939.68
2023-02-27T07:48:48.961Z,939.67
2023-02-27T07:49:49.650Z,939.82
2023-02-27T07:50:48.904Z,939.64
2023-02-27T07:51:48.905Z,939.59
2023-02-27T07:52:48.902Z,939.68
2023-02-27T07:53:48.873Z,939.69
2023-02-27T07:54:48.977Z,939.74
2023-02-27T07:55:48.860Z,939.59
2023-02-27T07:56:48.869Z,939.76
2023-02-27T07:57:48.842Z,939.71
2023-02-27T07:58:48.967Z,939.71
2023-02-27T07:59:48.838Z,939.78
2023-02-27T08:00:48.825Z,939.73
2023-02-27T08:01:48.811Z,939.70
2023-02-27T08:02:48.952Z,939.73
2023-02-27T08:03:48.909Z,939.86
2023-02-27T08:04:48.825Z,939.80
2023-02-27T08:05:48.747Z,939.83
2023-02-27T08:06:48.738Z,939.61
2023-02-27T08:07:49.207Z,939.79
2023-02-27T08:08:48.718Z,939.67
2023-02-27T08:09:48.718Z,939.75
2023-02-27T08:10:48.725Z,939.72
2023-02-27T08:11:49.346Z,939.80
2023-02-27T08:12:48.686Z,939.79
2023-02-27T08:13:59.962Z,939.83
2023-02-27T08:14:50.038Z,939.81
2023-02-27T08:15:48.678Z,939.90
2023-02-27T08:16:48.670Z,939.87
2023-02-27T08:17:48.652Z,939.85
2023-02-27T08:18:48.645Z,939.97
2023-02-27T08:19:48.616Z,939.95
2023-02-27T08:20:48.700Z,939.87
2023-02-27T08:21:48.640Z,939.88
2023-02-27T08:22:48.592Z,939.95
2023-02-27T08:23:48.648Z,939.98
2023-02-27T08:24:48.609Z,939.98
2023-02-27T08:25:48.597Z,939.94
2023-02-27T08:26:48.559Z,939.97
2023-02-27T08:27:48.602Z,940.01
2023-02-27T08:28:48.574Z,940.01
2023-02-27T08:29:48.547Z,939.96
2023-02-27T08:30:48.588Z,940.00
2023-02-27T08:31:53.282Z,940.07
2023-02-27T08:32:48.480Z,940.03
2023-02-27T08:33:55.285Z,940.00
2023-02-27T08:34:49.485Z,940.03
2023-02-27T08:35:48.497Z,940.03
2023-02-27T08:36:48.468Z,939.99
2023-02-27T08:37:48.464Z,939.92
2023-02-27T08:38:48.435Z,939.84
2023-02-27T08:39:48.532Z,939.93
2023-02-27T08:40:48.406Z,939.95
2023-02-27T08:41:48.406Z,939.99
2023-02-27T08:42:48.417Z,939.93
2023-02-27T08:43:48.366Z,940.02
2023-02-27T08:44:48.390Z,940.17
2023-02-27T08:45:48.405Z,939.91
2023-02-27T08:46:48.347Z,940.01
2023-02-27T08:47:48.357Z,940.06
2023-02-27T08:48:48.341Z,940.03
2023-02-27T08:49:48.332Z,940.03
2023-02-27T08:50:48.316Z,939.97
2023-02-27T08:51:48.298Z,939.95
2023-02-27T08:52:48.276Z,940.03
2023-02-27T08:53:48.262Z,940.10
2023-02-27T08:54:48.280Z,940.11
2023-02-27T08:55:48.261Z,940.00
2023-02-27T08:56:48.240Z,940.14
2023-02-27T08:57:48.318Z,940.14
2023-02-27T08:58:48.258Z,940.04
2023-02-27T08:59:48.307Z,940.06
2023-02-27T09:00:48.323Z,940.12
2023-02-27T09:01:48.203Z,940.16
2023-02-27T09:02:48.258Z,940.10
2023-02-27T09:03:48.229Z,940.09
2023-02-27T09:04:48.161Z,940.04
2023-02-27T09:05:48.236Z,940.21
2023-02-27T09:06:48.140Z,940.09
2023-02-27T09:07:48.160Z,940.11
2023-02-27T09:08:48.128Z,940.11
2023-02-27T09:09:50.023Z,940.09
2023-02-27T09:10:48.103Z,940.11
2023-02-27T09:11:48.199Z,940.14
2023-02-27T09:12:48.074Z,940.10
2023-02-27T09:13:48.069Z,940.18
2023-02-27T09:14:48.111Z,940.16
2023-02-27T09:15:48.084Z,940.16
2023-02-27T09:16:48.099Z,940.18
2023-02-27T09:17:48.044Z,940.08
2023-02-27T09:18:48.031Z,940.27
2023-02-27T09:19:48.066Z,940.17
2023-02-27T09:20:48.005Z,940.24
2023-02-27T09:21:48.045Z,940.23
2023-02-27T09:22:47.979Z,940.22
2023-02-27T09:23:47.982Z,940.23
2023-02-27T09:24:47.982Z,940.28
2023-02-27T09:25:47.982Z,940.29
2023-02-27T09:26:48.487Z,940.28
2023-02-27T09:27:47.984Z,940.25
2023-02-27T09:28:47.982Z,940.33
2023-02-27T09:29:47.941Z,940.28
2023-02-27T09:30:47.899Z,940.29
2023-02-27T09:31:52.875Z,940.31
2023-02-27T09:32:47.937Z,940.24
2023-02-27T09:33:47.995Z,940.31
2023-02-27T09:34:47.894Z,940.34
2023-02-27T09:35:47.995Z,940.37
2023-02-27T09:36:47.874Z,940.39
2023-02-27T09:37:47.870Z,940.33
2023-02-27T09:38:47.856Z,940.41
2023-02-27T09:39:47.813Z,940.37
2023-02-27T09:40:47.798Z,940.46
2023-02-27T09:41:47.825Z,940.36
2023-02-27T09:42:47.804Z,940.38
2023-02-27T09:43:47.975Z,940.42
2023-02-27T09:44:47.870Z,940.42
2023-02-27T09:45:47.776Z,940.35
2023-02-27T09:46:47.743Z,940.34
2023-02-27T09:47:47.726Z,940.35
2023-02-27T09:48:47.716Z,940.46
2023-02-27T09:49:47.732Z,940.53
2023-02-27T09:50:47.692Z,940.41
2023-02-27T09:51:47.732Z,940.46
2023-02-27T09:52:47.694Z,940.49
2023-02-27T09:53:47.670Z,940.53
2023-02-27T09:54:47.710Z,940.59
2023-02-27T09:55:47.664Z,940.62
2023-02-27T09:56:47.667Z,940.54
2023-02-27T09:57:47.632Z,940.54
2023-02-27T09:58:47.628Z,940.62
2023-02-27T09:59:47.660Z,940.62
2023-02-27T10:00:47.609Z,940.52
2023-02-27T10:01:47.587Z,940.64
2023-02-27T10:02:47.592Z,940.59
2023-02-27T10:03:47.576Z,940.58
2023-02-27T10:04:47.603Z,940.53
2023-02-27T10:05:47.571Z,940.60
2023-02-27T10:06:47.557Z,940.60
2023-02-27T10:07:47.570Z,940.63
2023-02-27T10:08:47.541Z,940.62
2023-02-27T10:09:47.580Z,940.63
2023-02-27T10:10:47.549Z,940.61
2023-02-27T10:11:47.504Z,940.61
2023-02-27T10:12:47.499Z,940.64
2023-02-27T10:13:47.471Z,940.69
2023-02-27T10:14:47.567Z,940.84
2023-02-27T10:15:47.560Z,940.79
2023-02-27T10:16:47.581Z,940.67
2023-02-27T10:17:47.426Z,940.62
2023-02-27T10:18:47.428Z,940.75
2023-02-27T10:19:47.442Z,940.73
2023-02-27T10:20:47.446Z,940.68
2023-02-27T10:21:47.401Z,940.68
2023-02-27T10:22:47.394Z,940.69
2023-02-27T10:23:47.372Z,940.68
2023-02-27T10:24:47.427Z,940.69
2023-02-27T10:25:47.344Z,940.69
2023-02-27T10:26:47.383Z,940.73
2023-02-27T10:27:47.371Z,940.64
2023-02-27T10:28:47.336Z,940.70
2023-02-27T10:29:47.307Z,940.69
2023-02-27T10:30:47.347Z,940.69
2023-02-27T10:31:47.364Z,940.81
2023-02-27T10:32:47.706Z,940.77
2023-02-27T10:33:47.284Z,940.79
2023-02-27T10:34:47.283Z,940.73
2023-02-27T10:35:47.295Z,940.75
2023-02-27T10:36:47.324Z,940.73
2023-02-27T10:37:47.236Z,940.70
2023-02-27T10:38:47.274Z,940.79
2023-02-27T10:39:47.210Z,940.77
2023-02-27T10:40:47.200Z,940.77
2023-02-27T10:41:47.191Z,940.73
2023-02-27T10:42:48.167Z,940.92
2023-02-27T10:43:47.168Z,940.86
2023-02-27T10:44:47.204Z,940.82
2023-02-27T10:45:47.190Z,940.75
2023-02-27T10:46:47.165Z,940.82
2023-02-27T10:47:47.139Z,940.77
2023-02-27T10:48:47.110Z,940.84
2023-02-27T10:49:47.131Z,940.82
2023-02-27T10:50:47.106Z,940.76
2023-02-27T10:51:47.151Z,940.79
2023-02-27T10:52:47.072Z,940.76
2023-02-27T10:53:47.074Z,940.77
2023-02-27T10:54:47.137Z,940.77
2023-02-27T10:55:47.143Z,940.77
2023-02-27T10:56:47.052Z,940.78
2023-02-27T10:57:47.045Z,940.79
2023-02-27T10:58:47.092Z,940.82
2023-02-27T10:59:47.068Z,940.88
2023-02-27T11:00:47.002Z,940.87
2023-02-27T11:01:47.030Z,940.86
2023-02-27T11:02:46.964Z,940.85
2023-02-27T11:03:46.970Z,940.84
2023-02-27T11:04:46.978Z,940.81
2023-02-27T11:05:46.964Z,940.86
2023-02-27T11:06:46.972Z,940.76
2023-02-27T11:07:46.925Z,940.79
2023-02-27T11:08:48.477Z,940.83
2023-02-27T11:09:46.935Z,940.86
2023-02-27T11:10:46.907Z,940.91
2023-02-27T11:11:46.888Z,940.86
2023-02-27T11:12:46.901Z,940.84
2023-02-27T11:13:46.898Z,940.86
2023-02-27T11:14:46.959Z,940.85
2023-02-27T11:15:46.979Z,940.76
2023-02-27T11:16:46.849Z,940.87
2023-02-27T11:17:46.854Z,940.82
2023-02-27T11:18:46.825Z,940.84
2023-02-27T11:19:46.809Z,940.85
2023-02-27T11:20:46.791Z,940.87
2023-02-27T11:21:46.772Z,940.91
2023-02-27T11:22:46.781Z,940.87
2023-02-27T11:23:46.777Z,940.89
2023-02-27T11:24:46.746Z,940.96
2023-02-27T11:25:46.878Z,941.04
2023-02-27T11:26:46.778Z,940.93
2023-02-27T11:27:46.859Z,940.89
2023-02-27T11:28:46.707Z,940.87
2023-02-27T11:29:46.695Z,941.04
2023-02-27T11:30:46.839Z,940.99
2023-02-27T11:31:46.779Z,940.97
2023-02-27T11:32:46.776Z,940.90
2023-02-27T11:33:46.667Z,940.85
2023-02-27T11:34:46.635Z,940.89
2023-02-27T11:35:46.700Z,940.85
2023-02-27T11:36:46.716Z,940.86
2023-02-27T11:37:46.673Z,940.86
2023-02-27T11:38:46.625Z,940.78
2023-02-27T11:39:46.597Z,940.76
2023-02-27T11:40:46.601Z,940.93
2023-02-27T11:41:46.596Z,940.82
2023-02-27T11:42:46.661Z,940.81
2023-02-27T11:43:46.556Z,940.72
2023-02-27T11:44:50.760Z,940.78
2023-02-27T11:46:04.262Z,940.81
2023-02-27T11:46:48.744Z,940.79
2023-02-27T11:47:46.579Z,940.81
2023-02-27T11:48:46.600Z,940.76
2023-02-27T11:49:46.507Z,940.87
2023-02-27T11:50:46.484Z,940.82
2023-02-27T11:51:46.510Z,940.81
2023-02-27T11:52:46.521Z,940.83
2023-02-27T11:53:53.569Z,940.82
2023-02-27T11:54:46.445Z,940.82
2023-02-27T11:55:46.483Z,940.83
2023-02-27T11:56:46.412Z,940.78
2023-02-27T11:57:46.403Z,940.82
2023-02-27T11:58:46.400Z,940.87
2023-02-27T11:59:46.465Z,940.85
2023-02-27T12:00:46.398Z,940.97
2023-02-27T12:01:46.367Z,940.84
2023-02-27T12:02:46.410Z,940.83
2023-02-27T12:03:46.474Z,940.81
2023-02-27T12:04:46.530Z,940.82
2023-02-27T12:05:46.469Z,940.81
2023-02-27T12:06:46.374Z,940.78
2023-02-27T12:07:46.337Z,940.70
2023-02-27T12:08:46.298Z,940.74
2023-02-27T12:09:46.281Z,940.82
2023-02-27T12:10:46.389Z,940.80
2023-02-27T12:11:46.324Z,940.82
2023-02-27T12:12:46.292Z,940.77
2023-02-27T12:13:46.306Z,940.84
2023-02-27T12:14:46.383Z,940.85
2023-02-27T12:15:46.283Z,940.75
2023-02-27T12:16:46.291Z,940.81
2023-02-27T12:17:46.199Z,940.81
2023-02-27T12:18:46.256Z,940.83
2023-02-27T12:19:46.208Z,940.82
2023-02-27T12:20:46.256Z,940.77
2023-02-27T12:21:48.397Z,940.80
2023-02-27T12:22:46.251Z,940.74
2023-02-27T12:23:46.167Z,940.77
2023-02-27T12:24:46.196Z,940.78
2023-02-27T12:25:46.115Z,940.74
2023-02-27T12:26:46.139Z,940.85
2023-02-27T12:27:46.158Z,940.79
2023-02-27T12:28:46.181Z,940.84